sensor_id;sensor_type;location;lat;lon;timestamp;P1;durP1;ratioP1;P2;durP2;ratioP2
5237;SDS011;2639;49.700;7.962;2022-11-09T04:19:58;24.67;;;23.73;;
5237;SDS011;2639;49.700;7.962;2022-11-09T04:23:10;20.77;;;19.77;;
5237;SDS011;2639;49.700;7.962;2022-11-09T04:26:21;21.37;;;20.57;;
5237;SDS011;2639;49.700;7.962;2022-11-09T04:29:30;24.53;;;23.53;;
5237;SDS011;2639;49.700;7.962;2022-11-09T04:32:40;23.07;;;22.07;;
5237;SDS011;2639;49.700;7.962;2022-11-09T04:35:51;22.27;;;21.37;;
5237;SDS011;2639;49.700;7.962;2022-11-09T04:39:01;23.53;;;22.63;;
5237;SDS011;2639;49.700;7.962;2022-11-09T04:42:10;20.17;;;19.37;;
5237;SDS011;2639;49.700;7.962;2022-11-09T04:45:20;22.47;;;21.47;;
5237;SDS011;2639;49.700;7.962;2022-11-09T04:48:30;21.50;;;20.60;;
5237;SDS011;2639;49.700;7.962;2022-11-09T04:51:42;25.47;;;24.47;;
5237;SDS011;2639;49.700;7.962;2022-11-09T04:54:51;22.13;;;21.23;;
5237;SDS011;2639;49.700;7.962;2022-11-09T04:58:01;22.30;;;21.50;;
5237;SDS011;2639;49.700;7.962;2022-11-09T05:01:11;21.33;;;20.53;;
5237;SDS011;2639;49.700;7.962;2022-11-09T05:04:22;25.27;;;24.27;;
5237;SDS011;2639;49.700;7.962;2022-11-09T05:07:33;22.37;;;21.53;;
5237;SDS011;2639;49.700;7.962;2022-11-09T05:10:42;22.27;;;21.37;;
5237;SDS011;2639;49.700;7.962;2022-11-09T05:13:52;23.13;;;22.13;;
5237;SDS011;2639;49.700;7.962;2022-11-09T05:17:02;24.53;;;23.53;;
5237;SDS011;2639;49.700;7.962;2022-11-09T05:20:12;23.53;;;22.43;;
5237;SDS011;2639;49.700;7.962;2022-11-09T05:23:23;23.67;;;22.50;;
5237;SDS011;2639;49.700;7.962;2022-11-09T05:26:44;23.83;;;22.83;;
5237;SDS011;2639;49.700;7.962;2022-11-09T05:29:53;22.20;;;21.30;;
5237;SDS011;2639;49.700;7.962;2022-11-09T05:33:03;22.90;;;22.00;;
5237;SDS011;2639;49.700;7.962;2022-11-09T05:36:13;27.07;;;25.77;;
5237;SDS011;2639;49.700;7.962;2022-11-09T05:39:24;24.97;;;23.67;;
5237;SDS011;2639;49.700;7.962;2022-11-09T05:42:34;22.23;;;21.13;;
5237;SDS011;2639;49.700;7.962;2022-11-09T05:45:46;21.67;;;20.87;;
5237;SDS011;2639;49.700;7.962;2022-11-09T05:48:56;26.53;;;25.43;;
5237;SDS011;2639;49.700;7.962;2022-11-09T05:52:05;24.53;;;23.17;;
5237;SDS011;2639;49.700;7.962;2022-11-09T05:55:16;36.33;;;34.43;;
5237;SDS011;2639;49.700;7.962;2022-11-09T05:58:26;44.87;;;42.70;;
5237;SDS011;2639;49.700;7.962;2022-11-09T07:44:15;44.13;;;42.47;;
5237;SDS011;2639;49.700;7.962;2022-11-09T07:47:27;43.70;;;42.10;;
5237;SDS011;2639;49.700;7.962;2022-11-09T07:50:37;58.77;;;56.47;;
5237;SDS011;2639;49.700;7.962;2022-11-09T07:53:48;62.07;;;59.77;;
5237;SDS011;2639;49.700;7.962;2022-11-09T07:56:57;50.00;;;48.13;;
5237;SDS011;2639;49.700;7.962;2022-11-09T08:00:09;68.03;;;65.53;;
5237;SDS011;2639;49.700;7.962;2022-11-09T08:03:22;77.03;;;74.20;;
5237;SDS011;2639;49.700;7.962;2022-11-09T08:06:32;78.00;;;75.20;;
5237;SDS011;2639;49.700;7.962;2022-11-09T08:09:42;66.73;;;64.27;;
5237;SDS011;2639;49.700;7.962;2022-11-09T08:12:53;77.00;;;74.03;;
5237;SDS011;2639;49.700;7.962;2022-11-09T08:16:05;64.50;;;62.20;;
5237;SDS011;2639;49.700;7.962;2022-11-09T08:19:15;78.53;;;75.57;;
5237;SDS011;2639;49.700;7.962;2022-11-09T08:22:24;74.50;;;71.80;;
5237;SDS011;2639;49.700;7.962;2022-11-09T08:25:34;80.93;;;77.97;;
5237;SDS011;2639;49.700;7.962;2022-11-09T08:28:44;71.53;;;68.87;;
5237;SDS011;2639;49.700;7.962;2022-11-09T08:31:55;82.30;;;79.10;;
5237;SDS011;2639;49.700;7.962;2022-11-09T08:35:05;98.70;;;95.10;;
5237;SDS011;2639;49.700;7.962;2022-11-09T08:38:17;106.63;;;102.73;;
5237;SDS011;2639;49.700;7.962;2022-11-09T08:41:27;102.47;;;98.57;;
5237;SDS011;2639;49.700;7.962;2022-11-09T08:44:37;126.90;;;122.23;;
5237;SDS011;2639;49.700;7.962;2022-11-09T08:47:48;101.17;;;97.30;;
5237;SDS011;2639;49.700;7.962;2022-11-09T08:51:05;71.93;;;69.23;;
5237;SDS011;2639;49.700;7.962;2022-11-09T08:54:15;51.87;;;49.87;;
5237;SDS011;2639;49.700;7.962;2022-11-09T08:57:25;33.37;;;32.07;;
5237;SDS011;2639;49.700;7.962;2022-11-09T09:00:35;71.90;;;64.70;;
5237;SDS011;2639;49.700;7.962;2022-11-09T09:03:45;37.87;;;36.07;;
5237;SDS011;2639;49.700;7.962;2022-11-09T09:06:55;42.73;;;40.53;;
5237;SDS011;2639;49.700;7.962;2022-11-09T09:10:07;44.13;;;41.53;;
5237;SDS011;2639;49.700;7.962;2022-11-09T09:13:17;31.20;;;29.70;;
5237;SDS011;2639;49.700;7.962;2022-11-09T09:16:30;42.40;;;40.37;;
5237;SDS011;2639;49.700;7.962;2022-11-09T09:19:41;31.80;;;30.30;;
5237;SDS011;2639;49.700;7.962;2022-11-09T09:22:57;33.47;;;31.63;;
5237;SDS011;2639;49.700;7.962;2022-11-09T09:26:07;38.30;;;36.00;;
5237;SDS011;2639;49.700;7.962;2022-11-09T09:29:17;25.80;;;24.53;;
5237;SDS011;2639;49.700;7.962;2022-11-09T09:32:26;25.33;;;24.07;;
5237;SDS011;2639;49.700;7.962;2022-11-09T09:35:38;34.37;;;32.67;;
5237;SDS011;2639;49.700;7.962;2022-11-09T09:38:48;26.13;;;24.83;;
5237;SDS011;2639;49.700;7.962;2022-11-09T09:41:59;22.53;;;21.60;;
5237;SDS011;2639;49.700;7.962;2022-11-09T09:45:13;31.80;;;30.27;;
5237;SDS011;2639;49.700;7.962;2022-11-09T09:48:29;29.97;;;28.67;;
5237;SDS011;2639;49.700;7.962;2022-11-09T09:51:48;36.83;;;35.23;;
5237;SDS011;2639;49.700;7.962;2022-11-09T09:55:07;40.50;;;38.47;;
5237;SDS011;2639;49.700;7.962;2022-11-09T09:58:22;34.37;;;32.87;;
5237;SDS011;2639;49.700;7.962;2022-11-09T10:01:36;33.60;;;32.17;;
5237;SDS011;2639;49.700;7.962;2022-11-09T10:04:47;29.87;;;28.40;;
5237;SDS011;2639;49.700;7.962;2022-11-09T10:08:05;30.30;;;28.70;;
5237;SDS011;2639;49.700;7.962;2022-11-09T10:11:23;23.17;;;22.23;;
5237;SDS011;2639;49.700;7.962;2022-11-09T10:14:48;26.27;;;25.17;;
5237;SDS011;2639;49.700;7.962;2022-11-09T10:18:11;30.40;;;29.03;;
5237;SDS011;2639;49.700;7.962;2022-11-09T10:21:35;24.57;;;23.27;;
5237;SDS011;2639;49.700;7.962;2022-11-09T10:24:56;22.53;;;21.43;;
5237;SDS011;2639;49.700;7.962;2022-11-09T10:28:31;19.90;;;18.90;;
5237;SDS011;2639;49.700;7.962;2022-11-09T10:32:08;21.60;;;20.30;;
5237;SDS011;2639;49.700;7.962;2022-11-09T10:35:23;21.60;;;20.60;;
5237;SDS011;2639;49.700;7.962;2022-11-09T10:38:39;27.53;;;25.83;;
5237;SDS011;2639;49.700;7.962;2022-11-09T10:42:07;24.93;;;23.77;;
5237;SDS011;2639;49.700;7.962;2022-11-09T10:45:36;25.27;;;24.17;;
5237;SDS011;2639;49.700;7.962;2022-11-09T10:49:07;28.07;;;26.73;;
5237;SDS011;2639;49.700;7.962;2022-11-09T10:52:39;25.87;;;24.50;;
5237;SDS011;2639;49.700;7.962;2022-11-09T10:56:10;26.83;;;25.70;;
5237;SDS011;2639;49.700;7.962;2022-11-09T10:59:46;25.90;;;24.53;;
5237;SDS011;2639;49.700;7.962;2022-11-09T11:03:14;29.00;;;27.70;;
5237;SDS011;2639;49.700;7.962;2022-11-09T11:06:37;43.80;;;41.03;;
5237;SDS011;2639;49.700;7.962;2022-11-09T11:10:07;32.93;;;31.43;;
5237;SDS011;2639;49.700;7.962;2022-11-09T11:13:30;29.13;;;27.73;;
5237;SDS011;2639;49.700;7.962;2022-11-09T11:16:53;30.97;;;29.53;;
5237;SDS011;2639;49.700;7.962;2022-11-09T11:20:22;31.23;;;29.77;;
5237;SDS011;2639;49.700;7.962;2022-11-09T11:24:02;30.77;;;29.47;;
5237;SDS011;2639;49.700;7.962;2022-11-09T11:27:33;29.83;;;28.53;;
5237;SDS011;2639;49.700;7.962;2022-11-09T11:31:03;33.07;;;31.67;;
5237;SDS011;2639;49.700;7.962;2022-11-09T11:34:42;30.67;;;29.23;;
5237;SDS011;2639;49.700;7.962;2022-11-09T11:38:24;27.70;;;26.60;;
5237;SDS011;2639;49.700;7.962;2022-11-09T11:41:56;29.80;;;28.50;;
5237;SDS011;2639;49.700;7.962;2022-11-09T11:45:26;30.43;;;29.13;;
5237;SDS011;2639;49.700;7.962;2022-11-09T11:49:06;31.50;;;30.10;;
5237;SDS011;2639;49.700;7.962;2022-11-09T11:52:55;30.87;;;29.50;;
5237;SDS011;2639;49.700;7.962;2022-11-09T11:56:27;30.90;;;29.70;;
5237;SDS011;2639;49.700;7.962;2022-11-09T11:59:58;31.57;;;30.27;;
5237;SDS011;2639;49.700;7.962;2022-11-09T12:03:30;30.83;;;29.53;;
5237;SDS011;2639;49.700;7.962;2022-11-09T12:07:03;34.70;;;33.20;;
5237;SDS011;2639;49.700;7.962;2022-11-09T12:10:41;40.50;;;38.80;;
5237;SDS011;2639;49.700;7.962;2022-11-09T12:14:13;36.80;;;35.40;;
5237;SDS011;2639;49.700;7.962;2022-11-09T12:17:45;42.50;;;40.90;;
5237;SDS011;2639;49.700;7.962;2022-11-09T12:21:19;38.97;;;37.37;;
5237;SDS011;2639;49.700;7.962;2022-11-09T12:24:50;44.87;;;43.07;;
5237;SDS011;2639;49.700;7.962;2022-11-09T12:28:25;36.67;;;35.23;;
5237;SDS011;2639;49.700;7.962;2022-11-09T12:32:03;41.80;;;40.13;;
5237;SDS011;2639;49.700;7.962;2022-11-09T12:35:35;39.03;;;37.33;;
5237;SDS011;2639;49.700;7.962;2022-11-09T12:39:02;39.13;;;37.60;;
5237;SDS011;2639;49.700;7.962;2022-11-09T12:42:31;41.97;;;40.33;;
5237;SDS011;2639;49.700;7.962;2022-11-09T12:45:59;40.20;;;38.40;;
5237;SDS011;2639;49.700;7.962;2022-11-09T12:49:29;35.10;;;33.60;;
5237;SDS011;2639;49.700;7.962;2022-11-09T12:52:55;36.80;;;35.37;;
5237;SDS011;2639;49.700;7.962;2022-11-09T12:56:19;29.77;;;28.40;;
5237;SDS011;2639;49.700;7.962;2022-11-09T12:59:49;37.23;;;35.73;;
5237;SDS011;2639;49.700;7.962;2022-11-09T13:03:17;33.73;;;32.23;;
5237;SDS011;2639;49.700;7.962;2022-11-09T13:06:46;33.77;;;32.13;;
5237;SDS011;2639;49.700;7.962;2022-11-09T13:10:37;32.83;;;31.23;;
5237;SDS011;2639;49.700;7.962;2022-11-09T13:17:51;37.40;;;35.30;;
5237;SDS011;2639;49.700;7.962;2022-11-09T13:21:31;34.43;;;32.83;;
5237;SDS011;2639;49.700;7.962;2022-11-09T13:24:57;31.57;;;30.23;;
5237;SDS011;2639;49.700;7.962;2022-11-09T13:32:02;55.30;;;53.03;;
5237;SDS011;2639;49.700;7.962;2022-11-09T13:39:30;57.07;;;54.67;;
5237;SDS011;2639;49.700;7.962;2022-11-09T13:42:54;41.40;;;39.60;;
5237;SDS011;2639;49.700;7.962;2022-11-09T13:46:22;39.47;;;37.77;;
5237;SDS011;2639;49.700;7.962;2022-11-09T13:49:46;47.53;;;45.03;;
5237;SDS011;2639;49.700;7.962;2022-11-09T13:56:48;40.07;;;38.40;;
5237;SDS011;2639;49.700;7.962;2022-11-09T14:00:13;74.80;;;71.83;;
5237;SDS011;2639;49.700;7.962;2022-11-09T14:03:38;68.47;;;65.73;;
5237;SDS011;2639;49.700;7.962;2022-11-09T14:07:01;82.37;;;78.80;;
5237;SDS011;2639;49.700;7.962;2022-11-09T14:10:29;63.90;;;61.20;;
5237;SDS011;2639;49.700;7.962;2022-11-09T14:14:08;70.33;;;67.57;;
5237;SDS011;2639;49.700;7.962;2022-11-09T14:17:40;82.13;;;78.97;;
5237;SDS011;2639;49.700;7.962;2022-11-09T14:21:15;65.73;;;62.93;;
5237;SDS011;2639;49.700;7.962;2022-11-09T14:24:43;68.37;;;65.30;;
5237;SDS011;2639;49.700;7.962;2022-11-09T14:28:10;60.87;;;58.27;;
5237;SDS011;2639;49.700;7.962;2022-11-09T14:31:44;59.03;;;56.63;;
5237;SDS011;2639;49.700;7.962;2022-11-09T14:35:10;61.30;;;58.60;;
5237;SDS011;2639;49.700;7.962;2022-11-09T14:38:41;63.07;;;60.17;;
5237;SDS011;2639;49.700;7.962;2022-11-09T14:42:07;60.77;;;58.13;;
5237;SDS011;2639;49.700;7.962;2022-11-09T14:45:45;42.37;;;40.47;;
5237;SDS011;2639;49.700;7.962;2022-11-09T14:49:12;36.83;;;35.23;;
5237;SDS011;2639;49.700;7.962;2022-11-09T14:52:34;52.70;;;50.50;;
5237;SDS011;2639;49.700;7.962;2022-11-09T14:55:56;49.13;;;46.93;;
5237;SDS011;2639;49.700;7.962;2022-11-09T14:59:26;84.23;;;80.93;;
5237;SDS011;2639;49.700;7.962;2022-11-09T15:02:51;73.73;;;70.87;;
5237;SDS011;2639;49.700;7.962;2022-11-09T15:06:15;53.03;;;50.73;;
5237;SDS011;2639;49.700;7.962;2022-11-09T15:09:40;53.93;;;51.50;;
5237;SDS011;2639;49.700;7.962;2022-11-09T15:13:04;57.13;;;54.57;;
5237;SDS011;2639;49.700;7.962;2022-11-09T15:16:27;87.00;;;83.60;;
5237;SDS011;2639;49.700;7.962;2022-11-09T15:19:51;59.13;;;56.43;;
5237;SDS011;2639;49.700;7.962;2022-11-09T15:23:34;66.27;;;63.37;;
5237;SDS011;2639;49.700;7.962;2022-11-09T15:26:58;56.27;;;53.93;;
5237;SDS011;2639;49.700;7.962;2022-11-09T15:30:26;48.97;;;46.73;;
5237;SDS011;2639;49.700;7.962;2022-11-09T15:33:51;55.23;;;52.90;;
5237;SDS011;2639;49.700;7.962;2022-11-09T15:37:17;65.03;;;62.37;;
5237;SDS011;2639;49.700;7.962;2022-11-09T15:40:42;69.60;;;66.60;;
5237;SDS011;2639;49.700;7.962;2022-11-09T15:44:04;60.33;;;57.67;;
5237;SDS011;2639;49.700;7.962;2022-11-09T15:47:28;71.73;;;68.93;;
5237;SDS011;2639;49.700;7.962;2022-11-09T15:50:54;44.27;;;42.13;;
5237;SDS011;2639;49.700;7.962;2022-11-09T15:54:16;44.63;;;42.67;;
5237;SDS011;2639;49.700;7.962;2022-11-09T15:57:41;83.37;;;79.67;;
5237;SDS011;2639;49.700;7.962;2022-11-09T16:01:04;79.53;;;76.00;;
5237;SDS011;2639;49.700;7.962;2022-11-09T16:04:25;45.37;;;43.17;;
5237;SDS011;2639;49.700;7.962;2022-11-09T16:07:47;48.57;;;46.47;;
5237;SDS011;2639;49.700;7.962;2022-11-09T16:11:11;55.27;;;52.97;;
5237;SDS011;2639;49.700;7.962;2022-11-09T16:14:33;54.57;;;52.17;;
5237;SDS011;2639;49.700;7.962;2022-11-09T16:17:55;49.33;;;47.23;;
5237;SDS011;2639;49.700;7.962;2022-11-09T16:21:17;50.23;;;47.50;;
5237;SDS011;2639;49.700;7.962;2022-11-09T16:24:39;45.73;;;43.23;;
5237;SDS011;2639;49.700;7.962;2022-11-09T16:28:00;41.03;;;38.53;;
5237;SDS011;2639;49.700;7.962;2022-11-09T16:31:23;42.60;;;40.30;;
5237;SDS011;2639;49.700;7.962;2022-11-09T16:35:05;37.70;;;35.60;;
5237;SDS011;2639;49.700;7.962;2022-11-09T16:38:47;31.67;;;29.97;;
5237;SDS011;2639;49.700;7.962;2022-11-09T16:42:13;34.77;;;33.00;;
5237;SDS011;2639;49.700;7.962;2022-11-09T16:45:36;38.53;;;36.23;;
5237;SDS011;2639;49.700;7.962;2022-11-09T16:49:00;35.57;;;33.63;;
5237;SDS011;2639;49.700;7.962;2022-11-09T16:52:22;31.57;;;29.50;;
5237;SDS011;2639;49.700;7.962;2022-11-09T16:55:45;34.73;;;33.07;;
5237;SDS011;2639;49.700;7.962;2022-11-09T16:59:07;55.70;;;52.70;;
5237;SDS011;2639;49.700;7.962;2022-11-09T17:02:29;33.97;;;32.00;;
5237;SDS011;2639;49.700;7.962;2022-11-09T17:05:52;34.20;;;32.60;;
5237;SDS011;2639;49.700;7.962;2022-11-09T17:09:14;40.20;;;37.50;;
5237;SDS011;2639;49.700;7.962;2022-11-09T17:12:35;59.00;;;56.20;;
5237;SDS011;2639;49.700;7.962;2022-11-09T17:16:01;51.10;;;48.90;;
5237;SDS011;2639;49.700;7.962;2022-11-09T17:19:24;47.13;;;44.93;;
5237;SDS011;2639;49.700;7.962;2022-11-09T17:22:53;68.33;;;65.03;;
5237;SDS011;2639;49.700;7.962;2022-11-09T17:26:15;66.53;;;63.43;;
5237;SDS011;2639;49.700;7.962;2022-11-09T17:29:40;68.47;;;65.43;;
5237;SDS011;2639;49.700;7.962;2022-11-09T17:33:02;72.00;;;68.97;;
5237;SDS011;2639;49.700;7.962;2022-11-09T17:36:24;49.47;;;46.90;;
5237;SDS011;2639;49.700;7.962;2022-11-09T17:40:07;62.03;;;59.33;;
5237;SDS011;2639;49.700;7.962;2022-11-09T17:43:30;58.90;;;56.37;;
5237;SDS011;2639;49.700;7.962;2022-11-09T17:46:53;54.10;;;51.57;;
5237;SDS011;2639;49.700;7.962;2022-11-09T17:50:15;45.67;;;43.57;;
5237;SDS011;2639;49.700;7.962;2022-11-09T17:53:41;43.03;;;40.93;;
5237;SDS011;2639;49.700;7.962;2022-11-09T17:57:06;74.00;;;71.00;;
5237;SDS011;2639;49.700;7.962;2022-11-09T18:00:29;62.07;;;59.37;;
5237;SDS011;2639;49.700;7.962;2022-11-09T18:03:53;66.63;;;63.93;;
5237;SDS011;2639;49.700;7.962;2022-11-09T18:07:16;42.03;;;39.97;;
5237;SDS011;2639;49.700;7.962;2022-11-09T18:10:40;112.60;;;107.63;;
5237;SDS011;2639;49.700;7.962;2022-11-09T18:14:07;34.47;;;32.53;;
5237;SDS011;2639;49.700;7.962;2022-11-09T18:17:31;43.20;;;41.20;;
5237;SDS011;2639;49.700;7.962;2022-11-09T18:20:54;42.23;;;40.03;;
5237;SDS011;2639;49.700;7.962;2022-11-09T18:24:17;41.33;;;39.33;;
5237;SDS011;2639;49.700;7.962;2022-11-09T18:27:41;67.20;;;62.50;;
5237;SDS011;2639;49.700;7.962;2022-11-09T18:31:06;98.83;;;93.83;;
5237;SDS011;2639;49.700;7.962;2022-11-09T18:34:34;143.30;;;136.80;;
5237;SDS011;2639;49.700;7.962;2022-11-09T18:37:57;114.47;;;108.93;;
5237;SDS011;2639;49.700;7.962;2022-11-09T18:41:21;135.73;;;129.17;;
5237;SDS011;2639;49.700;7.962;2022-11-09T18:44:45;161.53;;;151.10;;
5237;SDS011;2639;49.700;7.962;2022-11-09T18:48:10;150.20;;;142.60;;
5237;SDS011;2639;49.700;7.962;2022-11-09T18:51:33;146.63;;;139.13;;
5237;SDS011;2639;49.700;7.962;2022-11-09T18:54:57;96.07;;;90.63;;
5237;SDS011;2639;49.700;7.962;2022-11-09T18:58:20;118.93;;;113.03;;
5237;SDS011;2639;49.700;7.962;2022-11-09T19:01:44;154.67;;;147.47;;
5237;SDS011;2639;49.700;7.962;2022-11-09T19:05:14;154.00;;;146.93;;
5237;SDS011;2639;49.700;7.962;2022-11-09T19:08:38;118.43;;;112.97;;
5237;SDS011;2639;49.700;7.962;2022-11-09T19:12:12;124.93;;;119.10;;
5237;SDS011;2639;49.700;7.962;2022-11-09T19:15:36;141.73;;;135.63;;
5237;SDS011;2639;49.700;7.962;2022-11-09T19:19:05;139.90;;;134.07;;
5237;SDS011;2639;49.700;7.962;2022-11-09T19:22:35;85.33;;;81.40;;
5237;SDS011;2639;49.700;7.962;2022-11-09T19:25:59;122.90;;;117.60;;
5237;SDS011;2639;49.700;7.962;2022-11-09T19:29:24;104.77;;;99.93;;
5237;SDS011;2639;49.700;7.962;2022-11-09T19:32:49;154.43;;;148.13;;
5237;SDS011;2639;49.700;7.962;2022-11-09T19:36:13;112.53;;;107.53;;
5237;SDS011;2639;49.700;7.962;2022-11-09T19:39:52;150.53;;;144.13;;
5237;SDS011;2639;49.700;7.962;2022-11-09T19:43:16;137.97;;;132.20;;
5237;SDS011;2639;49.700;7.962;2022-11-09T19:46:43;88.53;;;84.47;;
5237;SDS011;2639;49.700;7.962;2022-11-09T19:50:08;51.53;;;48.70;;
5237;SDS011;2639;49.700;7.962;2022-11-09T19:53:33;120.33;;;114.97;;
5237;SDS011;2639;49.700;7.962;2022-11-09T19:57:03;159.90;;;153.37;;
5237;SDS011;2639;49.700;7.962;2022-11-09T20:00:29;58.73;;;56.00;;
5237;SDS011;2639;49.700;7.962;2022-11-09T20:03:53;56.90;;;53.73;;
5237;SDS011;2639;49.700;7.962;2022-11-09T20:07:19;108.33;;;103.10;;
5237;SDS011;2639;49.700;7.962;2022-11-09T20:10:43;94.90;;;90.10;;
5237;SDS011;2639;49.700;7.962;2022-11-09T20:14:08;138.53;;;132.40;;
5237;SDS011;2639;49.700;7.962;2022-11-09T20:17:32;111.17;;;106.17;;
5237;SDS011;2639;49.700;7.962;2022-11-09T20:20:56;73.67;;;69.77;;
5237;SDS011;2639;49.700;7.962;2022-11-09T20:24:19;67.37;;;64.07;;
5237;SDS011;2639;49.700;7.962;2022-11-09T20:27:42;70.73;;;67.40;;
5237;SDS011;2639;49.700;7.962;2022-11-09T20:31:08;118.23;;;113.27;;
5237;SDS011;2639;49.700;7.962;2022-11-09T20:34:32;59.87;;;56.90;;
5237;SDS011;2639;49.700;7.962;2022-11-09T20:37:55;49.23;;;46.87;;
5237;SDS011;2639;49.700;7.962;2022-11-09T20:41:19;67.50;;;64.40;;
5237;SDS011;2639;49.700;7.962;2022-11-09T20:59:17;188.37;;;180.77;;
5237;SDS011;2639;49.700;7.962;2022-11-09T21:02:41;134.93;;;128.97;;
